createdAt,value
2023-02-08T00:03:52.381Z,71.04
2023-02-08T00:08:49.177Z,70.68
2023-02-08T00:13:46.009Z,71.01
2023-02-08T00:18:42.783Z,71.41
2023-02-08T00:23:40.683Z,71.04
2023-02-08T00:28:37.431Z,70.98
2023-02-08T00:33:35.436Z,71.40
2023-02-08T00:38:32.316Z,72.59
2023-02-08T00:43:29.687Z,73.59
2023-02-08T00:48:26.379Z,73.19
2023-02-08T00:53:22.933Z,72.36
2023-02-08T00:58:19.557Z,72.97
2023-02-08T01:03:16.864Z,73.32
2023-02-08T01:08:14.566Z,73.00
2023-02-08T01:13:11.182Z,74.15
2023-02-08T01:18:07.804Z,74.89
2023-02-08T01:23:05.161Z,76.85
2023-02-08T01:28:02.921Z,76.63
2023-02-08T01:32:59.574Z,75.87
2023-02-08T01:37:58.045Z,75.59
2023-02-08T01:42:55.365Z,75.14
2023-02-08T01:47:57.611Z,74.78
2023-02-08T01:52:54.558Z,74.17
2023-02-08T01:57:55.983Z,73.76
2023-02-08T02:02:55.299Z,73.54
2023-02-08T02:07:53.570Z,74.03
2023-02-08T02:12:50.730Z,74.53
2023-02-08T02:17:47.589Z,75.08
2023-02-08T02:23:04.896Z,76.25
2023-02-08T02:28:21.189Z,77.34
2023-02-08T02:33:28.515Z,77.98
2023-02-08T02:38:32.848Z,78.73
2023-02-08T02:43:41.858Z,77.99
2023-02-08T02:48:42.327Z,77.32
2023-02-08T02:53:43.356Z,74.19
2023-02-08T02:58:40.832Z,72.89
2023-02-08T03:03:37.522Z,70.08
2023-02-08T03:09:04.092Z,68.82
2023-02-08T03:14:15.646Z,66.98
2023-02-08T03:19:17.624Z,65.28
2023-02-08T03:24:23.593Z,64.33
2023-02-08T03:29:26.638Z,64.83
2023-02-08T03:34:28.722Z,64.07
2023-02-08T03:39:27.338Z,64.43
2023-02-08T03:44:27.368Z,64.72
2023-02-08T03:49:27.219Z,65.50
2023-02-08T03:54:26.705Z,64.62
2023-02-08T03:59:26.128Z,63.88
2023-02-08T04:04:26.670Z,63.78
2023-02-08T04:09:23.407Z,62.21
2023-02-08T04:14:20.078Z,60.53
2023-02-08T04:19:17.504Z,62.23
2023-02-08T04:24:14.319Z,60.56
2023-02-08T04:29:11.225Z,61.60
2023-02-08T04:34:08.031Z,60.49
2023-02-08T04:39:05.475Z,61.25
2023-02-08T04:44:02.085Z,61.60
2023-02-08T04:48:59.142Z,60.81
2023-02-08T04:53:55.749Z,60.53
2023-02-08T04:58:53.096Z,61.61
2023-02-08T05:03:50.278Z,60.01
2023-02-08T05:08:47.077Z,59.83
2023-02-08T05:13:43.718Z,60.53
2023-02-08T05:18:41.161Z,59.57
2023-02-08T05:23:38.256Z,59.35
2023-02-08T05:28:35.015Z,59.77
2023-02-08T05:33:31.822Z,59.71
2023-02-08T05:38:29.059Z,60.31
2023-02-08T05:43:25.950Z,60.25
2023-02-08T05:48:22.834Z,61.45
2023-02-08T05:53:19.487Z,61.53
2023-02-08T05:58:17.661Z,61.36
2023-02-08T06:03:14.416Z,61.47
2023-02-08T06:08:11.237Z,61.89
2023-02-08T06:13:08.229Z,60.89
2023-02-08T06:18:05.801Z,60.85
2023-02-08T06:23:02.831Z,60.74
2023-02-08T06:27:59.700Z,60.77
2023-02-08T06:32:56.849Z,61.61
2023-02-08T06:37:54.332Z,60.71
2023-02-08T06:42:51.255Z,61.02
2023-02-08T06:47:48.182Z,61.57
2023-02-08T06:52:47.065Z,62.49
2023-02-08T06:57:45.916Z,62.57
2023-02-08T07:02:46.858Z,62.70
2023-02-08T07:07:43.854Z,64.77
2023-02-08T07:12:43.328Z,64.95
2023-02-08T07:17:40.903Z,65.71
2023-02-08T07:22:37.711Z,65.67
2023-02-08T07:34:03.132Z,65.35
2023-02-08T07:44:54.225Z,64.07
2023-02-08T07:50:53.551Z,64.41
2023-02-08T08:01:59.832Z,64.52
2023-02-08T08:07:06.824Z,63.95
2023-02-08T08:12:17.878Z,65.47
2023-02-08T08:24:16.904Z,65.75
2023-02-08T08:30:18.915Z,66.11
2023-02-08T08:36:05.335Z,66.48
2023-02-08T09:00:10.173Z,71.07
2023-02-08T09:05:21.397Z,67.25
2023-02-08T09:11:07.650Z,66.45
2023-02-08T09:16:16.981Z,67.67
2023-02-08T09:21:35.510Z,67.65
2023-02-08T09:26:38.663Z,68.74
2023-02-08T09:32:30.054Z,70.99
2023-02-08T09:38:02.176Z,70.05
2023-02-08T09:43:04.159Z,70.95
2023-02-08T09:48:07.596Z,72.74
2023-02-08T09:53:08.258Z,73.51
2023-02-08T09:58:17.742Z,71.24
2023-02-08T10:03:21.355Z,73.22
2023-02-08T10:08:18.270Z,75.96
2023-02-08T10:13:40.398Z,78.17
2023-02-08T10:18:44.226Z,81.84
2023-02-08T10:23:50.926Z,80.89
2023-02-08T10:28:57.833Z,81.32
2023-02-08T10:40:37.717Z,85.43
2023-02-08T10:45:40.164Z,84.86
2023-02-08T10:50:39.418Z,85.76
2023-02-08T10:55:42.129Z,86.39
2023-02-08T11:00:40.621Z,87.72
2023-02-08T11:05:38.584Z,87.76
2023-02-08T11:10:35.756Z,88.58
2023-02-08T11:15:37.318Z,90.10
2023-02-08T11:20:37.053Z,90.84
2023-02-08T11:25:35.990Z,89.61
2023-02-08T11:31:17.540Z,88.30
2023-02-08T11:36:15.700Z,87.81
2023-02-08T11:47:25.244Z,87.12
2023-02-08T11:52:24.903Z,84.85
2023-02-08T11:57:27.745Z,85.68
2023-02-08T12:02:35.740Z,86.13
2023-02-08T12:07:44.596Z,84.06
2023-02-08T12:12:46.782Z,85.71
2023-02-08T12:17:53.334Z,86.87
2023-02-08T12:22:56.301Z,85.27
2023-02-08T12:27:59.242Z,82.57
2023-02-08T12:33:11.248Z,82.69
2023-02-08T12:38:26.983Z,80.23
2023-02-08T12:43:30.156Z,79.74
2023-02-08T12:48:35.784Z,78.51
2023-02-08T12:53:35.466Z,77.56
2023-02-08T12:58:36.171Z,78.27
2023-02-08T13:03:36.355Z,76.97
2023-02-08T13:08:36.673Z,77.19
2023-02-08T13:13:35.568Z,77.42
2023-02-08T13:18:34.664Z,76.71
2023-02-08T13:23:50.596Z,76.82
2023-02-08T13:28:53.659Z,75.75
2023-02-08T13:34:01.384Z,75.39
2023-02-08T13:39:08.224Z,74.44
2023-02-08T13:50:23.956Z,72.83
2023-02-08T14:01:23.661Z,72.26
2023-02-08T14:06:23.757Z,72.03
2023-02-08T14:11:28.776Z,71.57
2023-02-08T14:16:30.900Z,70.60
2023-02-08T14:21:30.569Z,70.70
2023-02-08T14:26:30.153Z,70.58
2023-02-08T14:31:40.198Z,68.62
2023-02-08T14:36:37.249Z,67.46
2023-02-08T14:41:44.455Z,64.94
2023-02-08T14:46:43.352Z,63.76
2023-02-08T14:51:41.838Z,63.19
2023-02-08T14:56:49.312Z,59.75
2023-02-08T15:02:12.319Z,59.40
2023-02-08T15:07:31.264Z,58.64
2023-02-08T15:12:30.205Z,57.72
2023-02-08T15:17:32.020Z,57.61
2023-02-08T15:22:33.856Z,57.21
2023-02-08T15:27:33.555Z,56.60
2023-02-08T15:32:30.695Z,56.96
2023-02-08T15:37:30.580Z,55.83
2023-02-08T15:42:29.154Z,55.45
2023-02-08T15:47:27.762Z,55.85
2023-02-08T15:52:26.346Z,56.09
2023-02-08T15:57:31.797Z,56.49
2023-02-08T16:02:30.471Z,56.63
2023-02-08T16:07:28.483Z,56.82
2023-02-08T16:12:26.802Z,56.86
2023-02-08T16:17:31.253Z,56.26
2023-02-08T16:22:31.904Z,56.71
2023-02-08T16:27:30.516Z,56.88
2023-02-08T16:32:30.222Z,56.91
2023-02-08T16:37:29.470Z,56.24
2023-02-08T16:42:30.353Z,55.52
2023-02-08T16:47:28.156Z,56.28
2023-02-08T16:52:25.094Z,55.56
2023-02-08T16:57:22.649Z,55.60
2023-02-08T17:02:19.404Z,55.49
2023-02-08T17:07:22.282Z,55.77
2023-02-08T17:12:24.002Z,55.06
2023-02-08T17:17:23.593Z,55.14
2023-02-08T17:22:20.345Z,54.69
2023-02-08T17:27:17.392Z,54.02
2023-02-08T17:32:21.544Z,53.28
2023-02-08T17:37:19.207Z,53.79
2023-02-08T17:42:17.400Z,53.01
2023-02-08T17:47:14.265Z,53.78
2023-02-08T17:52:11.148Z,53.49
2023-02-08T17:57:11.297Z,54.15
2023-02-08T18:02:11.530Z,54.06
2023-02-08T18:07:08.244Z,53.70
2023-02-08T18:12:05.390Z,54.02
2023-02-08T18:17:06.916Z,54.27
2023-02-08T18:22:05.420Z,53.56
2023-02-08T18:27:02.281Z,53.34
2023-02-08T18:31:59.148Z,52.92
2023-02-08T18:36:56.799Z,53.08
2023-02-08T18:42:14.054Z,53.74
2023-02-08T18:47:10.725Z,53.54
2023-02-08T18:52:10.292Z,54.14
2023-02-08T18:57:09.234Z,54.87
2023-02-08T19:02:06.754Z,55.99
2023-02-08T19:07:06.963Z,56.42
2023-02-08T19:12:05.021Z,56.52
2023-02-08T19:17:02.115Z,56.71
2023-02-08T19:22:02.434Z,56.28
2023-02-08T19:27:02.840Z,56.42
2023-02-08T19:32:00.666Z,55.92
2023-02-08T19:36:57.381Z,55.54
2023-02-08T19:41:54.362Z,54.77
2023-02-08T19:46:52.359Z,55.84
2023-02-08T19:51:50.026Z,56.60
2023-02-08T19:56:49.980Z,56.89
2023-02-08T20:01:47.059Z,58.45
2023-02-08T20:06:44.417Z,58.31
2023-02-08T20:11:55.877Z,58.06
2023-02-08T20:16:53.350Z,58.07
2023-02-08T20:21:50.343Z,55.86
2023-02-08T20:26:48.114Z,57.41
2023-02-08T20:31:46.075Z,58.56
2023-02-08T20:36:47.582Z,59.88
2023-02-08T20:41:49.667Z,60.46
2023-02-08T20:46:46.715Z,60.83
2023-02-08T20:51:43.625Z,61.04
2023-02-08T20:56:40.954Z,61.09
2023-02-08T21:01:38.452Z,60.77
2023-02-08T21:06:36.314Z,59.35
2023-02-08T21:11:33.428Z,60.05
2023-02-08T21:16:30.590Z,59.87
2023-02-08T21:21:28.125Z,60.70
2023-02-08T21:26:25.234Z,59.62
2023-02-08T21:31:23.357Z,61.74
2023-02-08T21:36:21.445Z,62.76
2023-02-08T21:41:20.764Z,63.15
2023-02-08T21:46:17.588Z,62.55
2023-02-08T21:51:32.395Z,63.07
2023-02-08T21:56:29.756Z,63.63
2023-02-08T22:01:26.532Z,63.97
2023-02-08T22:06:41.774Z,64.17
2023-02-08T22:11:39.328Z,65.88
2023-02-08T22:16:36.138Z,65.99
2023-02-08T22:21:33.512Z,66.31
2023-02-08T22:26:30.111Z,67.52
2023-02-08T22:31:27.521Z,67.57
2023-02-08T22:36:24.604Z,66.97
2023-02-08T22:41:21.315Z,67.06
2023-02-08T22:46:18.208Z,65.72
2023-02-08T22:51:17.237Z,67.76
2023-02-08T22:56:14.299Z,68.58
2023-02-08T23:01:11.724Z,68.48
2023-02-08T23:06:09.292Z,68.79
2023-02-08T23:11:06.752Z,68.96
2023-02-08T23:16:03.640Z,68.36
2023-02-08T23:21:05.130Z,68.43
2023-02-08T23:26:04.192Z,67.72
2023-02-08T23:31:04.244Z,68.91
2023-02-08T23:36:04.122Z,69.28
2023-02-08T23:41:02.501Z,69.53
2023-02-08T23:45:59.406Z,67.71
2023-02-08T23:50:57.452Z,66.99
2023-02-08T23:56:01.793Z,67.41
